createdAt,value
2022-10-14T00:00:01.348Z,65.82
2022-10-14T00:02:27.737Z,66.24
2022-10-14T00:04:54.291Z,66.29
2022-10-14T00:07:20.890Z,66.05
2022-10-14T00:09:47.492Z,66.42
2022-10-14T00:12:14.087Z,66.69
2022-10-14T00:14:40.571Z,66.41
2022-10-14T00:17:06.963Z,66.60
2022-10-14T00:19:33.512Z,67.04
2022-10-14T00:22:00.061Z,66.62
2022-10-14T00:24:26.603Z,66.70
2022-10-14T00:26:52.996Z,66.74
2022-10-14T00:29:19.610Z,66.31
2022-10-14T00:31:47.060Z,66.21
2022-10-14T00:34:15.755Z,65.90
2022-10-14T00:36:43.136Z,65.59
2022-10-14T00:39:10.363Z,65.56
2022-10-14T00:41:37.294Z,65.45
2022-10-14T00:44:12.825Z,65.91
2022-10-14T00:46:44.784Z,66.52
2022-10-14T00:49:17.195Z,66.52
2022-10-14T00:51:49.327Z,66.39
2022-10-14T00:54:19.740Z,66.76
2022-10-14T00:56:48.123Z,65.98
2022-10-14T00:59:15.453Z,65.95
2022-10-14T01:01:41.942Z,65.94
2022-10-14T01:04:08.361Z,65.71
2022-10-14T01:07:15.533Z,65.69
2022-10-14T01:10:11.460Z,65.18
2022-10-14T01:12:53.146Z,65.51
2022-10-14T01:15:31.239Z,65.27
2022-10-14T01:18:21.312Z,65.52
2022-10-14T01:21:18.122Z,65.67
2022-10-14T01:23:56.437Z,65.55
2022-10-14T01:26:43.564Z,65.56
2022-10-14T01:29:25.659Z,65.50
2022-10-14T01:32:02.048Z,65.61
2022-10-14T01:34:38.387Z,65.86
2022-10-14T01:37:13.638Z,65.59
2022-10-14T01:39:47.987Z,65.71
2022-10-14T01:42:20.099Z,65.67
2022-10-14T01:44:54.211Z,65.85
2022-10-14T01:47:21.932Z,65.91
2022-10-14T01:49:57.012Z,66.03
2022-10-14T01:52:29.972Z,66.02
2022-10-14T01:55:02.410Z,66.17
2022-10-14T01:57:31.591Z,65.92
2022-10-14T01:59:59.378Z,66.19
2022-10-14T02:02:26.222Z,66.54
2022-10-14T02:04:52.780Z,66.83
2022-10-14T02:07:43.306Z,66.97
2022-10-14T02:10:27.790Z,67.60
2022-10-14T02:13:19.584Z,67.80
2022-10-14T02:16:06.289Z,67.37
2022-10-14T02:18:46.931Z,67.22
2022-10-14T02:21:24.501Z,68.36
2022-10-14T02:24:00.280Z,67.85
2022-10-14T02:26:28.319Z,68.14
2022-10-14T02:28:56.666Z,68.27
2022-10-14T02:31:26.421Z,68.30
2022-10-14T02:33:55.919Z,68.35
2022-10-14T02:36:26.305Z,67.95
2022-10-14T02:38:56.706Z,67.59
2022-10-14T02:41:25.984Z,67.51
2022-10-14T02:43:52.619Z,67.09
2022-10-14T02:46:22.718Z,66.75
2022-10-14T02:48:50.202Z,66.39
2022-10-14T02:51:17.126Z,66.45
2022-10-14T02:53:43.619Z,66.18
2022-10-14T02:56:13.027Z,66.08
2022-10-14T02:58:39.546Z,66.22
2022-10-14T03:01:06.024Z,65.77
2022-10-14T03:03:32.502Z,65.96
2022-10-14T03:05:58.910Z,65.84
2022-10-14T03:08:25.340Z,66.08
2022-10-14T03:10:51.759Z,65.69
2022-10-14T03:13:18.141Z,65.80
2022-10-14T03:15:44.664Z,66.22
2022-10-14T03:18:11.122Z,66.46
2022-10-14T03:20:37.785Z,66.53
2022-10-14T03:23:04.248Z,66.51
2022-10-14T03:25:30.665Z,66.29
2022-10-14T03:27:57.107Z,66.30
2022-10-14T03:30:23.511Z,66.60
2022-10-14T03:32:49.910Z,67.22
2022-10-14T03:35:16.436Z,67.84
2022-10-14T03:37:42.844Z,67.63
2022-10-14T03:40:10.146Z,68.09
2022-10-14T03:42:36.911Z,67.39
2022-10-14T03:45:04.216Z,67.31
2022-10-14T03:47:30.711Z,69.12
2022-10-14T03:49:57.108Z,69.16
2022-10-14T03:52:23.830Z,68.71
2022-10-14T03:54:50.534Z,69.18
2022-10-14T03:57:16.964Z,68.89
2022-10-14T03:59:44.542Z,68.54
2022-10-14T04:02:11.086Z,69.23
2022-10-14T04:04:37.521Z,68.56
2022-10-14T04:07:04.196Z,68.18
2022-10-14T04:09:30.641Z,68.02
2022-10-14T04:11:58.039Z,68.10
2022-10-14T04:14:26.503Z,67.79
2022-10-14T04:16:52.998Z,67.85
2022-10-14T04:19:19.623Z,68.06
2022-10-14T04:21:46.071Z,67.92
2022-10-14T04:24:12.831Z,68.06
2022-10-14T04:26:39.382Z,67.78
2022-10-14T04:29:05.792Z,68.39
2022-10-14T04:31:32.203Z,68.07
2022-10-14T04:33:58.657Z,67.70
2022-10-14T04:36:25.169Z,67.99
2022-10-14T04:38:51.573Z,67.72
2022-10-14T04:41:17.995Z,68.42
2022-10-14T04:43:44.397Z,67.76
2022-10-14T04:46:10.976Z,68.27
2022-10-14T04:48:37.371Z,68.28
2022-10-14T04:51:04.019Z,67.97
2022-10-14T04:53:30.462Z,67.72
2022-10-14T04:55:56.886Z,68.57
2022-10-14T04:58:23.339Z,67.94
2022-10-14T05:00:49.794Z,68.66
2022-10-14T05:03:16.178Z,67.96
2022-10-14T05:05:42.642Z,68.36
2022-10-14T05:08:09.054Z,67.74
2022-10-14T05:10:35.450Z,68.17
2022-10-14T05:13:02.501Z,68.64
2022-10-14T05:15:29.195Z,68.48
2022-10-14T05:17:55.869Z,68.69
2022-10-14T05:20:22.549Z,68.96
2022-10-14T05:22:48.985Z,68.48
2022-10-14T05:25:15.576Z,68.54
2022-10-14T05:27:42.047Z,68.61
2022-10-14T05:30:09.628Z,68.75
2022-10-14T05:32:36.444Z,68.01
2022-10-14T05:35:02.967Z,68.27
2022-10-14T05:37:29.355Z,67.76
2022-10-14T05:39:55.863Z,67.69
2022-10-14T05:42:22.700Z,68.17
2022-10-14T05:44:49.361Z,68.03
2022-10-14T05:47:15.821Z,67.59
2022-10-14T05:49:42.794Z,67.60
2022-10-14T05:52:09.302Z,67.70
2022-10-14T05:54:35.917Z,68.53
2022-10-14T05:57:02.404Z,68.22
2022-10-14T05:59:29.825Z,68.46
2022-10-14T06:01:56.923Z,69.21
2022-10-14T06:04:23.440Z,68.92
2022-10-14T06:06:49.917Z,69.11
2022-10-14T06:09:16.860Z,68.64
2022-10-14T06:11:43.506Z,68.57
2022-10-14T06:14:10.003Z,68.14
2022-10-14T06:16:36.537Z,68.08
2022-10-14T06:19:03.612Z,68.36
2022-10-14T06:21:30.177Z,67.82
2022-10-14T06:23:56.615Z,67.70
2022-10-14T06:26:23.159Z,67.92
2022-10-14T06:28:49.658Z,67.90
2022-10-14T06:31:16.127Z,67.74
2022-10-14T06:33:44.043Z,67.72
2022-10-14T06:36:11.818Z,67.38
2022-10-14T06:38:38.261Z,66.76
2022-10-14T06:41:04.948Z,66.73
2022-10-14T06:43:31.338Z,66.48
2022-10-14T06:45:58.623Z,66.71
2022-10-14T06:48:25.130Z,66.31
2022-10-14T06:50:52.567Z,66.90
2022-10-14T06:53:18.983Z,67.30
2022-10-14T06:55:45.439Z,67.73
2022-10-14T06:58:11.905Z,66.63
2022-10-14T07:00:38.415Z,66.22
2022-10-14T07:03:04.887Z,66.75
2022-10-14T07:05:31.401Z,66.21
2022-10-14T07:07:58.500Z,66.75
2022-10-14T07:10:25.008Z,66.53
2022-10-14T07:12:55.534Z,66.53
2022-10-14T07:15:22.171Z,66.53
2022-10-14T07:17:48.703Z,66.53
2022-10-14T07:20:15.234Z,67.67
2022-10-14T07:22:41.685Z,67.27
2022-10-14T07:25:08.748Z,67.58
2022-10-14T07:27:35.207Z,67.43
2022-10-14T07:30:01.714Z,67.64
2022-10-14T07:32:28.215Z,67.54
2022-10-14T07:34:54.784Z,66.45
2022-10-14T07:37:21.535Z,66.39
2022-10-14T07:39:48.426Z,66.01
2022-10-14T07:42:15.032Z,65.35
2022-10-14T07:44:41.588Z,65.57
2022-10-14T07:47:08.065Z,65.31
2022-10-14T07:49:34.724Z,65.34
2022-10-14T07:52:01.191Z,65.74
2022-10-14T07:54:30.048Z,65.84
2022-10-14T07:56:57.950Z,65.61
2022-10-14T07:59:25.616Z,65.24
2022-10-14T08:01:53.177Z,64.78
2022-10-14T08:04:20.164Z,64.12
2022-10-14T08:06:50.175Z,62.88
2022-10-14T08:09:18.325Z,63.07
2022-10-14T08:11:45.826Z,62.90
2022-10-14T08:14:12.344Z,62.51
2022-10-14T08:16:39.338Z,62.10
2022-10-14T08:19:14.126Z,61.89
2022-10-14T08:21:41.730Z,61.10
2022-10-14T08:24:08.686Z,60.54
2022-10-14T08:26:39.844Z,59.55
2022-10-14T08:29:11.075Z,56.95
2022-10-14T08:31:38.093Z,56.27
2022-10-14T08:34:04.572Z,53.67
2022-10-14T08:36:31.442Z,52.16
2022-10-14T08:38:58.041Z,51.57
2022-10-14T08:41:30.592Z,51.06
2022-10-14T08:44:20.610Z,49.90
2022-10-14T08:46:52.373Z,49.85
2022-10-14T08:49:25.997Z,50.25
2022-10-14T08:52:00.044Z,50.83
2022-10-14T08:54:38.218Z,51.15
2022-10-14T08:57:06.154Z,51.72
2022-10-14T08:59:40.312Z,54.23
2022-10-14T09:02:57.208Z,54.51
2022-10-14T09:05:25.858Z,52.48
2022-10-14T09:07:55.280Z,51.46
2022-10-14T09:10:25.520Z,49.78
2022-10-14T09:12:56.126Z,50.79
2022-10-14T09:15:30.725Z,51.43
2022-10-14T09:18:20.724Z,50.85
2022-10-14T09:20:48.300Z,50.61
2022-10-14T09:23:19.134Z,49.15
2022-10-14T09:25:57.480Z,49.65
2022-10-14T09:28:34.678Z,48.94
2022-10-14T09:31:01.278Z,47.22
2022-10-14T09:33:28.839Z,46.82
2022-10-14T09:35:55.450Z,44.53
2022-10-14T09:38:21.981Z,45.04
2022-10-14T09:40:51.372Z,47.62
2022-10-14T09:43:20.620Z,47.29
2022-10-14T09:45:50.292Z,47.15
2022-10-14T09:48:49.076Z,45.86
2022-10-14T09:51:34.781Z,46.38
2022-10-14T09:54:04.020Z,46.12
2022-10-14T09:56:40.683Z,45.45
2022-10-14T09:59:19.531Z,47.04
2022-10-14T10:01:54.635Z,47.70
2022-10-14T10:04:36.501Z,47.64
2022-10-14T10:07:06.905Z,48.58
2022-10-14T10:09:34.423Z,49.54
2022-10-14T10:12:00.937Z,50.07
2022-10-14T10:14:33.172Z,51.69
2022-10-14T10:17:09.621Z,51.42
2022-10-14T10:19:38.827Z,52.01
2022-10-14T10:22:27.344Z,52.21
2022-10-14T10:25:03.528Z,52.42
2022-10-14T10:27:35.298Z,53.44
2022-10-14T10:30:37.324Z,54.51
2022-10-14T10:33:06.663Z,54.14
2022-10-14T10:36:10.097Z,54.54
2022-10-14T10:38:54.177Z,53.28
2022-10-14T10:41:39.088Z,52.67
2022-10-14T10:44:15.848Z,53.11
2022-10-14T10:47:20.659Z,52.92
2022-10-14T10:50:10.004Z,52.06
2022-10-14T10:52:56.560Z,49.97
2022-10-14T10:55:59.531Z,50.73
2022-10-14T10:58:41.119Z,50.69
2022-10-14T11:01:32.207Z,51.16
2022-10-14T11:04:17.655Z,51.59
2022-10-14T11:07:28.935Z,50.97
2022-10-14T11:10:32.986Z,51.34
2022-10-14T11:13:06.516Z,51.54
2022-10-14T11:15:57.275Z,49.40
2022-10-14T11:18:49.979Z,49.09
2022-10-14T11:21:25.344Z,47.45
2022-10-14T11:24:00.047Z,47.23
2022-10-14T11:26:41.539Z,47.69
2022-10-14T11:29:23.023Z,45.99
2022-10-14T11:32:34.685Z,46.72
2022-10-14T11:35:12.747Z,47.38
2022-10-14T11:38:18.712Z,45.90
2022-10-14T11:41:01.454Z,44.22
2022-10-14T11:43:50.383Z,45.67
2022-10-14T11:46:20.573Z,45.38
2022-10-14T11:48:59.354Z,44.23
2022-10-14T11:51:35.788Z,45.56
2022-10-14T11:54:11.432Z,43.68
2022-10-14T11:56:51.184Z,44.84
2022-10-14T11:59:29.591Z,44.70
2022-10-14T12:02:12.715Z,46.11
2022-10-14T12:04:43.831Z,45.67
2022-10-14T12:07:22.820Z,46.27
2022-10-14T12:09:57.391Z,47.08
2022-10-14T12:12:29.091Z,49.46
2022-10-14T12:15:04.213Z,49.55
2022-10-14T12:17:39.109Z,49.02
2022-10-14T12:20:22.845Z,49.69
2022-10-14T12:22:51.048Z,49.24
2022-10-14T12:25:22.261Z,49.36
2022-10-14T12:27:50.154Z,50.37
2022-10-14T12:30:36.745Z,51.18
2022-10-14T12:33:08.946Z,51.27
2022-10-14T12:35:51.759Z,52.77
2022-10-14T12:38:20.735Z,51.68
2022-10-14T12:40:50.654Z,50.88
2022-10-14T12:43:26.196Z,50.83
2022-10-14T12:46:24.691Z,51.54
2022-10-14T12:48:52.019Z,50.95
2022-10-14T12:51:23.071Z,50.25
2022-10-14T12:54:15.731Z,49.34
2022-10-14T12:56:54.929Z,48.37
2022-10-14T12:59:29.817Z,48.68
2022-10-14T13:01:59.944Z,48.98
2022-10-14T13:04:28.579Z,48.78
2022-10-14T13:07:35.678Z,49.56
2022-10-14T13:10:45.216Z,48.03
2022-10-14T13:13:41.917Z,49.86
2022-10-14T13:16:23.263Z,50.23
2022-10-14T13:18:54.298Z,49.68
2022-10-14T13:21:38.945Z,50.63
2022-10-14T13:24:14.060Z,50.63
2022-10-14T13:26:56.692Z,50.37
2022-10-14T13:29:36.828Z,50.48
2022-10-14T13:32:27.314Z,51.10
2022-10-14T13:34:56.461Z,51.24
2022-10-14T13:38:03.760Z,51.03
2022-10-14T13:40:37.408Z,51.30
2022-10-14T13:43:15.979Z,51.91
2022-10-14T13:45:53.133Z,51.73
2022-10-14T13:48:27.391Z,51.74
2022-10-14T13:51:24.754Z,52.06
2022-10-14T13:54:09.317Z,51.32
2022-10-14T13:56:35.809Z,50.45
2022-10-14T13:59:05.408Z,51.07
2022-10-14T14:01:39.405Z,51.34
2022-10-14T14:04:06.127Z,51.94
2022-10-14T14:06:40.071Z,51.18
2022-10-14T14:09:24.404Z,51.52
2022-10-14T14:11:54.610Z,51.54
2022-10-14T14:14:33.405Z,51.81
2022-10-14T14:17:01.300Z,52.00
2022-10-14T14:19:36.037Z,51.50
2022-10-14T14:22:28.858Z,51.71
2022-10-14T14:25:34.893Z,51.89
2022-10-14T14:28:05.720Z,51.93
2022-10-14T14:30:35.753Z,52.38
2022-10-14T14:33:06.794Z,51.85
2022-10-14T14:35:33.310Z,51.60
2022-10-14T14:38:00.066Z,51.62
2022-10-14T14:40:30.979Z,52.12
2022-10-14T14:43:03.662Z,51.98
2022-10-14T14:45:33.809Z,51.33
2022-10-14T14:48:06.793Z,51.32
2022-10-14T14:50:42.851Z,51.86
2022-10-14T14:53:17.242Z,51.45
2022-10-14T14:56:03.898Z,51.13
2022-10-14T14:58:47.262Z,52.19
2022-10-14T15:01:22.352Z,52.71
2022-10-14T15:04:12.204Z,53.34
2022-10-14T15:06:40.996Z,53.25
2022-10-14T15:09:24.287Z,53.48
2022-10-14T15:11:57.684Z,53.47
2022-10-14T15:14:30.665Z,53.70
2022-10-14T15:16:57.166Z,54.69
2022-10-14T15:19:32.937Z,54.08
2022-10-14T15:22:24.062Z,54.61
2022-10-14T15:25:12.041Z,55.17
2022-10-14T15:27:46.371Z,55.15
2022-10-14T15:30:39.538Z,55.41
2022-10-14T15:33:17.785Z,55.55
2022-10-14T15:35:46.265Z,55.60
2022-10-14T15:38:18.332Z,55.72
2022-10-14T15:40:46.812Z,56.03
2022-10-14T15:43:18.524Z,56.09
2022-10-14T15:45:46.179Z,56.65
2022-10-14T15:48:19.983Z,56.02
2022-10-14T15:50:48.229Z,56.11
2022-10-14T15:53:17.127Z,56.80
2022-10-14T15:55:44.117Z,56.43
2022-10-14T15:58:10.508Z,56.90
2022-10-14T16:00:37.022Z,57.20
2022-10-14T16:03:03.781Z,56.93
2022-10-14T16:05:30.281Z,57.05
2022-10-14T16:07:57.391Z,57.02
2022-10-14T16:10:25.907Z,56.96
2022-10-14T16:12:54.506Z,57.13
2022-10-14T16:15:32.212Z,57.05
2022-10-14T16:17:58.854Z,57.41
2022-10-14T16:20:26.178Z,58.00
2022-10-14T16:22:52.957Z,57.68
2022-10-14T16:25:33.582Z,58.24
2022-10-14T16:28:00.484Z,58.62
2022-10-14T16:30:27.945Z,58.18
2022-10-14T16:32:55.012Z,58.84
2022-10-14T16:35:21.439Z,59.12
2022-10-14T16:37:48.838Z,59.68
2022-10-14T16:40:15.404Z,60.28
2022-10-14T16:42:41.785Z,60.27
2022-10-14T16:45:08.524Z,60.00
2022-10-14T16:47:34.979Z,59.24
2022-10-14T16:50:01.486Z,60.32
2022-10-14T16:52:27.925Z,59.94
2022-10-14T16:54:54.383Z,59.80
2022-10-14T16:57:21.036Z,60.49
2022-10-14T16:59:47.448Z,60.63
2022-10-14T17:02:16.019Z,59.57
2022-10-14T17:04:43.194Z,60.17
2022-10-14T17:07:09.942Z,59.58
2022-10-14T17:09:37.002Z,60.13
2022-10-14T17:12:06.949Z,60.26
2022-10-14T17:14:36.469Z,60.17
2022-10-14T17:17:03.151Z,60.49
2022-10-14T17:19:29.737Z,60.38
2022-10-14T17:21:56.230Z,60.22
2022-10-14T17:24:23.217Z,59.60
2022-10-14T17:26:49.683Z,59.66
2022-10-14T17:29:16.106Z,59.92
2022-10-14T17:31:42.848Z,60.23
2022-10-14T17:34:10.153Z,60.17
2022-10-14T17:36:36.553Z,59.33
2022-10-14T17:39:03.493Z,59.45
2022-10-14T17:41:30.707Z,59.78
2022-10-14T17:44:00.260Z,60.07
2022-10-14T17:46:29.139Z,59.96
2022-10-14T17:48:58.063Z,60.17
2022-10-14T17:51:25.939Z,60.17
2022-10-14T17:53:58.176Z,60.94
2022-10-14T17:56:25.635Z,60.35
2022-10-14T17:58:54.136Z,60.11
2022-10-14T18:01:36.672Z,60.07
2022-10-14T18:04:08.047Z,60.81
2022-10-14T18:06:35.932Z,60.45
2022-10-14T18:09:05.708Z,60.29
2022-10-14T18:11:56.180Z,60.32
2022-10-14T18:14:21.403Z,59.76
2022-10-14T18:16:48.534Z,59.42
2022-10-14T18:19:16.747Z,60.31
2022-10-14T18:21:44.528Z,61.11
2022-10-14T18:24:11.884Z,61.20
2022-10-14T18:26:40.525Z,61.26
2022-10-14T18:29:07.245Z,61.80
2022-10-14T18:31:33.719Z,61.65
2022-10-14T18:34:01.714Z,60.71
2022-10-14T18:36:31.048Z,61.30
2022-10-14T18:39:00.020Z,61.89
2022-10-14T18:41:27.446Z,61.77
2022-10-14T18:44:00.523Z,61.60
2022-10-14T18:46:29.494Z,60.96
2022-10-14T18:48:57.641Z,62.15
2022-10-14T18:51:29.325Z,62.26
2022-10-14T18:54:00.778Z,61.56
2022-10-14T18:59:23.742Z,62.90
2022-10-14T19:01:52.823Z,62.26
2022-10-14T19:04:22.155Z,62.01
2022-10-14T19:06:49.013Z,61.63
2022-10-14T19:09:16.946Z,62.29
2022-10-14T19:11:44.591Z,61.77
2022-10-14T19:14:11.150Z,62.46
2022-10-14T19:16:39.080Z,61.68
2022-10-14T19:19:14.131Z,62.38
2022-10-14T19:21:41.151Z,62.05
2022-10-14T19:24:10.768Z,62.75
2022-10-14T19:26:40.881Z,61.99
2022-10-14T19:29:11.478Z,62.52
2022-10-14T19:31:39.189Z,62.50
2022-10-14T19:34:07.405Z,62.30
2022-10-14T19:36:38.332Z,62.51
2022-10-14T19:39:06.996Z,62.35
2022-10-14T19:41:35.522Z,62.35
2022-10-14T19:44:01.983Z,61.89
2022-10-14T19:46:29.155Z,62.19
2022-10-14T19:48:58.243Z,62.22
2022-10-14T19:51:24.888Z,62.77
2022-10-14T19:53:51.695Z,62.97
2022-10-14T19:56:18.246Z,62.77
2022-10-14T19:58:45.121Z,62.27
2022-10-14T20:01:16.864Z,62.51
2022-10-14T20:03:43.406Z,63.33
2022-10-14T20:06:11.362Z,62.95
2022-10-14T20:08:37.857Z,62.92
2022-10-14T20:11:07.253Z,63.89
2022-10-14T20:13:34.559Z,63.76
2022-10-14T20:16:02.391Z,65.80
2022-10-14T20:18:29.907Z,64.91
2022-10-14T20:20:56.908Z,63.75
2022-10-14T20:23:24.554Z,64.45
2022-10-14T20:25:51.626Z,63.82
2022-10-14T20:28:21.049Z,63.43
2022-10-14T20:30:48.257Z,63.71
2022-10-14T20:33:14.762Z,62.86
2022-10-14T20:35:41.269Z,63.96
2022-10-14T20:38:07.734Z,64.65
2022-10-14T20:40:35.524Z,65.48
2022-10-14T20:43:02.657Z,65.53
2022-10-14T20:45:29.199Z,65.20
2022-10-14T20:47:55.715Z,65.42
2022-10-14T20:50:22.798Z,64.94
2022-10-14T20:52:49.747Z,65.57
2022-10-14T20:55:16.243Z,64.56
2022-10-14T20:57:42.656Z,65.06
2022-10-14T21:00:09.935Z,64.22
2022-10-14T21:02:36.581Z,64.64
2022-10-14T21:05:03.537Z,64.47
2022-10-14T21:07:29.950Z,64.60
2022-10-14T21:09:56.363Z,64.50
2022-10-14T21:12:22.921Z,64.73
2022-10-14T21:14:49.477Z,64.79
2022-10-14T21:17:15.932Z,63.92
2022-10-14T21:19:42.364Z,64.50
2022-10-14T21:22:09.593Z,64.84
2022-10-14T21:24:36.258Z,65.48
2022-10-14T21:27:02.778Z,65.56
2022-10-14T21:29:29.344Z,65.03
2022-10-14T21:31:55.840Z,65.37
2022-10-14T21:34:24.778Z,64.95
2022-10-14T21:36:51.459Z,64.67
2022-10-14T21:39:18.412Z,65.14
2022-10-14T21:41:45.892Z,65.52
2022-10-14T21:44:17.682Z,66.06
2022-10-14T21:46:44.204Z,65.89
2022-10-14T21:49:11.086Z,64.92
2022-10-14T21:51:38.317Z,65.59
2022-10-14T21:54:05.276Z,65.67
2022-10-14T21:56:32.099Z,66.25
2022-10-14T21:58:58.770Z,65.36
2022-10-14T22:01:27.869Z,65.67
2022-10-14T22:03:56.852Z,65.70
2022-10-14T22:06:23.952Z,65.42
2022-10-14T22:08:52.499Z,67.13
2022-10-14T22:11:24.498Z,66.32
2022-10-14T22:13:52.048Z,65.98
2022-10-14T22:16:18.782Z,66.32
2022-10-14T22:18:46.749Z,66.48
2022-10-14T22:21:15.482Z,66.35
2022-10-14T22:23:42.168Z,66.69
2022-10-14T22:26:12.210Z,66.50
2022-10-14T22:28:39.132Z,66.62
2022-10-14T22:31:07.992Z,67.09
2022-10-14T22:33:39.068Z,66.90
2022-10-14T22:36:13.761Z,66.10
2022-10-14T22:38:41.979Z,67.69
2022-10-14T22:41:10.158Z,66.91
2022-10-14T22:43:36.808Z,66.93
2022-10-14T22:46:12.348Z,66.63
2022-10-14T22:48:39.070Z,66.76
2022-10-14T22:51:11.521Z,66.80
2022-10-14T22:53:39.907Z,67.57
2022-10-14T22:56:09.438Z,68.03
2022-10-14T22:58:36.326Z,67.95
2022-10-14T23:01:14.947Z,67.79
2022-10-14T23:03:42.290Z,67.45
2022-10-14T23:06:11.585Z,67.69
2022-10-14T23:08:38.397Z,67.68
2022-10-14T23:11:05.861Z,68.37
2022-10-14T23:13:33.353Z,67.90
2022-10-14T23:16:07.714Z,67.40
2022-10-14T23:18:37.389Z,67.78
2022-10-14T23:21:37.526Z,68.01
2022-10-14T23:24:07.464Z,67.14
2022-10-14T23:26:35.055Z,67.67
2022-10-14T23:29:04.821Z,68.50
2022-10-14T23:31:33.349Z,68.35
2022-10-14T23:34:01.845Z,67.28
2022-10-14T23:36:28.818Z,67.57
2022-10-14T23:38:55.590Z,67.70
2022-10-14T23:41:22.880Z,67.33
2022-10-14T23:43:51.198Z,67.28
2022-10-14T23:46:18.938Z,68.31
2022-10-14T23:48:51.519Z,68.53
2022-10-14T23:51:27.726Z,67.73
2022-10-14T23:53:54.534Z,68.04
2022-10-14T23:56:20.942Z,68.55
2022-10-14T23:58:47.391Z,67.82
